createdAt,value
2023-02-11T00:01:39.120Z,33.43
2023-02-11T00:04:08.407Z,45.17
2023-02-11T00:06:37.977Z,42.87
2023-02-11T00:09:07.652Z,39.70
2023-02-11T00:11:35.689Z,42.80
2023-02-11T00:14:07.739Z,44.90
2023-02-11T00:16:38.095Z,40.90
2023-02-11T00:19:09.124Z,33.90
2023-02-11T00:21:38.487Z,41.13
2023-02-11T00:24:08.428Z,35.10
2023-02-11T00:26:36.780Z,45.47
2023-02-11T00:29:07.222Z,40.40
2023-02-11T00:31:35.606Z,39.83
2023-02-11T00:34:07.137Z,38.47
2023-02-11T00:36:42.689Z,41.37
2023-02-11T00:39:14.281Z,42.27
2023-02-11T00:41:42.790Z,38.43
2023-02-11T00:44:10.803Z,37.67
2023-02-11T00:46:39.398Z,43.70
2023-02-11T00:49:10.448Z,36.40
2023-02-11T00:51:38.633Z,41.97
2023-02-11T00:54:07.184Z,39.30
2023-02-11T00:56:36.672Z,45.13
2023-02-11T00:59:06.157Z,43.50
2023-02-11T01:01:34.571Z,34.47
2023-02-11T01:04:03.548Z,35.33
2023-02-11T01:06:31.774Z,36.30
2023-02-11T01:09:01.159Z,36.63
2023-02-11T01:11:29.216Z,34.30
2023-02-11T01:13:59.081Z,36.43
2023-02-11T01:16:27.157Z,33.00
2023-02-11T01:18:58.628Z,36.83
2023-02-11T01:21:26.752Z,35.53
2023-02-11T01:23:57.525Z,40.63
2023-02-11T01:26:25.701Z,35.20
2023-02-11T01:28:54.674Z,31.80
2023-02-11T01:31:27.687Z,37.53
2023-02-11T01:33:57.152Z,37.47
2023-02-11T01:36:25.166Z,33.93
2023-02-11T01:38:55.171Z,44.57
2023-02-11T01:41:23.201Z,36.77
2023-02-11T01:43:51.940Z,37.50
2023-02-11T01:46:31.902Z,35.00
2023-02-11T01:49:05.735Z,33.47
2023-02-11T01:51:45.097Z,34.07
2023-02-11T01:54:35.686Z,39.40
2023-02-11T01:57:23.096Z,32.33
2023-02-11T02:00:01.162Z,30.30
2023-02-11T02:02:41.521Z,31.13
2023-02-11T02:05:21.209Z,34.93
2023-02-11T02:07:59.824Z,30.53
2023-02-11T02:10:30.102Z,34.47
2023-02-11T02:12:58.368Z,34.23
2023-02-11T02:15:30.811Z,34.37
2023-02-11T02:18:08.933Z,30.07
2023-02-11T02:21:11.191Z,31.67
2023-02-11T02:24:14.167Z,35.60
2023-02-11T02:27:09.627Z,36.00
2023-02-11T02:30:19.502Z,33.10
2023-02-11T02:33:24.060Z,42.23
2023-02-11T02:36:05.113Z,32.33
2023-02-11T02:38:38.352Z,36.00
2023-02-11T02:41:11.397Z,43.00
2023-02-11T02:43:42.777Z,36.53
2023-02-11T02:46:17.045Z,38.07
2023-02-11T02:48:51.163Z,33.13
2023-02-11T02:51:31.672Z,36.10
2023-02-11T02:54:25.535Z,36.60
2023-02-11T02:56:59.134Z,36.57
2023-02-11T02:59:39.083Z,33.13
2023-02-11T03:02:16.177Z,39.93
2023-02-11T03:04:53.761Z,40.30
2023-02-11T03:07:29.492Z,35.30
2023-02-11T03:10:03.356Z,37.33
2023-02-11T03:12:34.520Z,39.20
2023-02-11T03:15:06.082Z,35.67
2023-02-11T03:17:36.173Z,32.70
2023-02-11T03:20:09.847Z,43.70
2023-02-11T03:22:42.074Z,34.10
2023-02-11T03:25:10.600Z,33.03
2023-02-11T03:27:43.443Z,31.93
2023-02-11T03:30:18.362Z,41.50
2023-02-11T03:32:52.353Z,28.60
2023-02-11T03:35:30.224Z,31.90
2023-02-11T03:38:04.837Z,31.50
2023-02-11T03:40:39.344Z,31.77
2023-02-11T03:43:11.005Z,35.07
2023-02-11T03:45:41.261Z,39.50
2023-02-11T03:48:15.694Z,35.60
2023-02-11T03:50:47.644Z,32.97
2023-02-11T03:53:16.910Z,32.60
2023-02-11T03:55:48.585Z,41.20
2023-02-11T03:58:16.765Z,36.70
2023-02-11T04:00:47.645Z,40.73
2023-02-11T04:03:15.905Z,38.63
2023-02-11T04:05:45.766Z,32.83
2023-02-11T04:08:13.812Z,34.43
2023-02-11T04:10:41.851Z,36.10
2023-02-11T04:13:10.716Z,32.50
2023-02-11T04:15:41.033Z,39.27
2023-02-11T04:18:09.920Z,34.00
2023-02-11T04:20:38.594Z,39.40
2023-02-11T04:23:08.192Z,36.00
2023-02-11T04:25:39.116Z,35.43
2023-02-11T04:28:07.469Z,37.70
2023-02-11T04:30:36.916Z,32.90
2023-02-11T04:33:05.044Z,44.33
2023-02-11T04:35:36.264Z,33.60
2023-02-11T04:38:04.292Z,39.00
2023-02-11T04:40:34.583Z,36.67
2023-02-11T04:43:03.066Z,34.00
2023-02-11T04:45:31.544Z,48.53
2023-02-11T04:48:00.514Z,36.70
2023-02-11T04:50:28.497Z,40.63
2023-02-11T04:52:57.522Z,37.23
2023-02-11T04:55:25.606Z,37.70
2023-02-11T04:57:55.907Z,44.70
2023-02-11T05:00:24.175Z,35.97
2023-02-11T05:02:52.627Z,49.87
2023-02-11T05:05:21.121Z,39.80
2023-02-11T05:07:49.277Z,47.57
2023-02-11T05:10:18.422Z,42.70
2023-02-11T05:12:50.883Z,36.57
2023-02-11T05:15:21.259Z,42.03
2023-02-11T05:17:49.238Z,46.30
2023-02-11T05:20:17.972Z,30.03
2023-02-11T05:22:45.986Z,46.77
2023-02-11T05:25:15.076Z,48.80
2023-02-11T05:27:43.569Z,34.97
2023-02-11T05:30:15.525Z,39.37
2023-02-11T05:32:44.891Z,36.50
2023-02-11T05:35:12.965Z,35.87
2023-02-11T05:37:41.282Z,45.83
2023-02-11T05:40:11.942Z,43.20
2023-02-11T05:42:41.268Z,41.23
2023-02-11T05:45:10.079Z,36.73
2023-02-11T05:47:39.664Z,44.13
2023-02-11T05:50:10.165Z,37.87
2023-02-11T05:52:38.167Z,40.20
2023-02-11T05:55:09.430Z,41.60
2023-02-11T05:57:37.469Z,42.17
2023-02-11T06:00:09.662Z,38.93
2023-02-11T06:02:43.410Z,36.03
2023-02-11T06:05:13.551Z,42.47
2023-02-11T06:07:41.584Z,43.00
2023-02-11T06:10:11.475Z,45.50
2023-02-11T06:12:39.798Z,45.97
2023-02-11T06:15:09.298Z,41.07
2023-02-11T06:17:37.457Z,43.47
2023-02-11T06:20:08.302Z,36.33
2023-02-11T06:22:37.670Z,45.30
2023-02-11T06:25:09.386Z,45.03
2023-02-11T06:27:37.907Z,41.50
2023-02-11T06:30:06.904Z,46.20
2023-02-11T06:32:43.998Z,46.00
2023-02-11T06:35:14.688Z,54.07
2023-02-11T06:37:44.664Z,42.03
2023-02-11T06:40:16.854Z,45.50
2023-02-11T06:42:46.300Z,53.13
2023-02-11T06:45:22.360Z,48.70
2023-02-11T06:47:53.244Z,42.27
2023-02-11T06:50:21.509Z,45.50
2023-02-11T06:52:52.384Z,54.80
2023-02-11T06:55:20.553Z,38.60
2023-02-11T06:57:49.441Z,51.07
2023-02-11T07:00:19.288Z,39.60
2023-02-11T07:02:47.366Z,45.90
2023-02-11T07:05:16.371Z,48.33
2023-02-11T07:07:44.392Z,46.57
2023-02-11T07:10:14.647Z,50.13
2023-02-11T07:12:43.128Z,52.03
2023-02-11T07:15:11.816Z,53.00
2023-02-11T07:17:40.266Z,45.50
2023-02-11T07:20:09.267Z,54.03
2023-02-11T07:22:38.329Z,48.60
2023-02-11T07:25:07.720Z,53.17
2023-02-11T07:27:37.586Z,53.07
2023-02-11T07:30:07.443Z,49.63
2023-02-11T07:32:36.187Z,65.03
2023-02-11T07:35:04.853Z,63.23
2023-02-11T07:37:37.701Z,66.10
2023-02-11T07:40:07.981Z,59.43
2023-02-11T07:42:37.351Z,63.60
2023-02-11T07:45:06.337Z,52.73
2023-02-11T07:47:35.551Z,65.37
2023-02-11T07:50:04.335Z,64.60
2023-02-11T07:52:32.382Z,79.93
2023-02-11T07:55:02.663Z,63.17
2023-02-11T07:57:34.406Z,96.50
2023-02-11T08:00:04.306Z,68.93
2023-02-11T08:02:38.734Z,78.77
2023-02-11T08:05:07.437Z,58.80
2023-02-11T08:07:36.728Z,67.50
2023-02-11T08:10:06.106Z,71.17
2023-02-11T08:12:37.005Z,68.53
2023-02-11T08:15:06.906Z,70.60
2023-02-11T08:17:37.206Z,80.27
2023-02-11T08:20:05.747Z,74.10
2023-02-11T08:22:34.785Z,74.83
2023-02-11T08:25:02.992Z,71.60
2023-02-11T08:27:31.684Z,71.83
2023-02-11T08:30:00.265Z,71.23
2023-02-11T08:32:30.028Z,72.07
2023-02-11T08:34:58.555Z,80.87
2023-02-11T08:37:26.596Z,71.90
2023-02-11T08:39:56.024Z,74.83
2023-02-11T08:42:24.468Z,66.97
2023-02-11T08:44:52.628Z,67.40
2023-02-11T08:47:21.627Z,84.93
2023-02-11T08:49:50.975Z,70.90
2023-02-11T08:52:19.475Z,72.20
2023-02-11T08:54:48.311Z,85.27
2023-02-11T08:57:16.304Z,75.70
2023-02-11T08:59:44.326Z,66.57
2023-02-11T09:02:15.547Z,64.33
2023-02-11T09:04:43.561Z,83.53
2023-02-11T09:07:13.866Z,83.37
2023-02-11T09:09:41.913Z,77.43
2023-02-11T09:12:09.923Z,71.97
2023-02-11T09:14:38.765Z,83.47
2023-02-11T09:17:06.809Z,90.53
2023-02-11T09:19:35.757Z,96.90
2023-02-11T09:22:04.141Z,82.30
2023-02-11T09:24:33.912Z,69.07
2023-02-11T09:27:01.928Z,74.50
2023-02-11T09:29:30.391Z,81.77
2023-02-11T09:31:59.048Z,83.90
2023-02-11T09:34:28.445Z,79.10
2023-02-11T09:36:56.507Z,74.37
2023-02-11T09:39:27.535Z,86.27
2023-02-11T09:42:35.698Z,89.63
2023-02-11T09:45:16.186Z,74.17
2023-02-11T09:47:54.792Z,68.43
2023-02-11T09:50:27.963Z,84.80
2023-02-11T09:53:02.645Z,86.43
2023-02-11T09:55:40.423Z,88.97
2023-02-11T09:58:14.841Z,83.07
2023-02-11T10:00:48.650Z,73.03
2023-02-11T10:03:48.286Z,79.10
2023-02-11T10:06:43.396Z,76.03
2023-02-11T10:09:37.841Z,82.07
2023-02-11T10:13:16.428Z,76.57
2023-02-11T10:15:52.925Z,89.20
2023-02-11T10:18:42.087Z,90.03
2023-02-11T10:21:21.314Z,77.23
2023-02-11T10:23:54.614Z,94.03
2023-02-11T10:26:23.687Z,85.57
2023-02-11T10:29:02.598Z,77.27
2023-02-11T10:31:41.181Z,84.20
2023-02-11T10:34:13.545Z,72.03
2023-02-11T10:36:44.372Z,71.77
2023-02-11T10:39:15.446Z,82.40
2023-02-11T10:41:47.543Z,81.63
2023-02-11T10:44:28.728Z,71.80
2023-02-11T10:47:02.693Z,91.77
2023-02-11T10:49:39.987Z,78.60
2023-02-11T10:52:22.497Z,75.83
2023-02-11T10:54:59.986Z,69.07
2023-02-11T10:57:34.302Z,100.17
2023-02-11T11:00:10.608Z,76.80
2023-02-11T11:02:45.018Z,68.30
2023-02-11T11:05:21.174Z,72.03
2023-02-11T11:07:55.200Z,74.50
2023-02-11T11:10:30.593Z,81.10
2023-02-11T11:12:58.638Z,73.63
2023-02-11T11:15:29.022Z,62.17
2023-02-11T11:18:22.881Z,82.80
2023-02-11T11:21:00.102Z,81.63
2023-02-11T11:23:30.639Z,80.63
2023-02-11T11:26:05.503Z,69.73
2023-02-11T11:28:41.468Z,73.83
2023-02-11T11:31:18.552Z,68.03
2023-02-11T11:33:49.301Z,85.73
2023-02-11T11:36:23.041Z,71.73
2023-02-11T11:39:00.997Z,70.93
2023-02-11T11:41:32.164Z,74.80
2023-02-11T11:44:03.906Z,75.07
2023-02-11T11:46:36.158Z,69.73
2023-02-11T11:49:27.609Z,86.60
2023-02-11T11:52:05.405Z,97.10
2023-02-11T11:54:35.732Z,79.83
2023-02-11T11:57:13.675Z,87.10
2023-02-11T11:59:42.355Z,106.80
2023-02-11T12:02:36.592Z,82.80
2023-02-11T12:05:12.001Z,82.03
2023-02-11T12:07:56.010Z,86.23
2023-02-11T12:10:39.453Z,83.03
2023-02-11T12:13:21.574Z,75.83
2023-02-11T12:15:58.620Z,86.70
2023-02-11T12:18:47.548Z,70.30
2023-02-11T12:21:38.601Z,86.30
2023-02-11T12:24:24.429Z,75.20
2023-02-11T12:26:59.107Z,92.63
2023-02-11T12:29:37.582Z,83.97
2023-02-11T12:32:20.565Z,78.13
2023-02-11T12:35:21.210Z,85.17
2023-02-11T12:38:19.457Z,82.43
2023-02-11T12:41:42.127Z,88.33
2023-02-11T12:44:20.129Z,81.13
2023-02-11T12:46:51.648Z,82.30
2023-02-11T12:49:46.966Z,95.10
2023-02-11T12:52:31.849Z,81.73
2023-02-11T12:55:09.268Z,104.10
2023-02-11T12:57:39.090Z,88.67
2023-02-11T13:00:14.967Z,79.70
2023-02-11T13:02:54.660Z,79.03
2023-02-11T13:05:39.463Z,84.90
2023-02-11T13:08:16.536Z,98.80
2023-02-11T13:10:51.106Z,88.30
2023-02-11T13:13:23.478Z,92.57
2023-02-11T13:15:58.102Z,86.27
2023-02-11T13:18:38.465Z,87.90
2023-02-11T13:21:23.444Z,88.07
2023-02-11T13:24:00.202Z,91.13
2023-02-11T13:26:34.864Z,103.57
2023-02-11T13:29:23.545Z,91.67
2023-02-11T13:31:56.997Z,99.83
2023-02-11T13:34:48.531Z,89.60
2023-02-11T13:37:23.811Z,99.17
2023-02-11T13:40:01.150Z,86.00
2023-02-11T13:42:34.210Z,74.77
2023-02-11T13:45:03.256Z,79.90
2023-02-11T13:47:34.196Z,96.37
2023-02-11T13:50:07.524Z,98.67
2023-02-11T13:52:38.294Z,90.63
2023-02-11T13:55:17.501Z,91.73
2023-02-11T13:57:47.001Z,94.17
2023-02-11T14:00:48.423Z,76.40
2023-02-11T14:03:42.420Z,95.13
2023-02-11T14:06:43.822Z,83.60
2023-02-11T14:09:40.612Z,84.53
2023-02-11T14:12:34.642Z,85.57
2023-02-11T14:15:22.559Z,99.23
2023-02-11T14:17:53.030Z,97.50
2023-02-11T14:20:47.007Z,90.63
2023-02-11T14:23:28.487Z,90.03
2023-02-11T14:26:16.804Z,90.17
2023-02-11T14:28:48.185Z,93.37
2023-02-11T14:31:22.962Z,77.13
2023-02-11T14:34:13.026Z,92.27
2023-02-11T14:37:01.521Z,80.87
2023-02-11T14:39:52.976Z,81.23
2023-02-11T14:42:26.834Z,86.17
2023-02-11T14:44:58.602Z,81.73
2023-02-11T14:47:36.345Z,73.70
2023-02-11T14:50:07.871Z,79.50
2023-02-11T14:52:39.326Z,77.93
2023-02-11T14:55:23.624Z,84.23
2023-02-11T14:58:07.234Z,85.63
2023-02-11T15:00:35.997Z,82.00
2023-02-11T15:03:05.371Z,77.40
2023-02-11T15:05:33.868Z,85.83
2023-02-11T15:08:05.063Z,89.93
2023-02-11T15:10:38.313Z,85.87
2023-02-11T15:13:08.535Z,80.97
2023-02-11T15:15:42.568Z,86.30
2023-02-11T15:18:22.567Z,67.07
2023-02-11T15:20:52.670Z,71.20
2023-02-11T15:23:26.146Z,79.43
2023-02-11T15:25:56.616Z,79.43
2023-02-11T15:28:27.088Z,80.23
2023-02-11T15:31:00.604Z,82.77
2023-02-11T15:33:32.120Z,81.93
2023-02-11T15:36:02.025Z,77.70
2023-02-11T15:38:32.713Z,68.27
2023-02-11T15:41:03.472Z,79.60
2023-02-11T15:43:50.655Z,84.67
2023-02-11T15:46:23.475Z,91.90
2023-02-11T15:48:54.728Z,75.80
2023-02-11T15:51:25.504Z,82.03
2023-02-11T15:53:57.232Z,77.33
2023-02-11T15:56:31.428Z,73.87
2023-02-11T15:59:01.502Z,75.60
2023-02-11T16:01:34.072Z,63.03
2023-02-11T16:04:05.748Z,79.40
2023-02-11T16:06:39.707Z,63.17
2023-02-11T16:09:25.469Z,74.70
2023-02-11T16:11:59.527Z,60.43
2023-02-11T16:14:33.336Z,62.93
2023-02-11T16:17:05.885Z,68.17
2023-02-11T16:19:36.509Z,65.73
2023-02-11T16:22:11.215Z,56.50
2023-02-11T16:24:41.582Z,58.50
2023-02-11T16:27:29.197Z,64.13
2023-02-11T16:29:59.040Z,64.67
2023-02-11T16:32:29.875Z,64.27
2023-02-11T16:35:01.698Z,60.67
2023-02-11T16:37:30.613Z,77.00
2023-02-11T16:39:59.575Z,59.83
2023-02-11T16:42:30.909Z,56.67
2023-02-11T16:45:01.227Z,61.70
2023-02-11T16:47:32.653Z,63.17
2023-02-11T16:50:03.067Z,59.70
2023-02-11T16:52:32.712Z,61.87
2023-02-11T16:55:01.593Z,61.60
2023-02-11T16:57:33.592Z,64.23
2023-02-11T17:00:01.674Z,59.43
2023-02-11T17:02:32.379Z,67.63
2023-02-11T17:05:05.191Z,59.50
2023-02-11T17:07:33.918Z,66.17
2023-02-11T17:10:02.127Z,59.50
2023-02-11T17:12:31.613Z,66.60
2023-02-11T17:14:59.572Z,62.43
2023-02-11T17:17:29.655Z,73.33
2023-02-11T17:19:58.599Z,57.17
2023-02-11T17:22:28.085Z,71.77
2023-02-11T17:24:59.785Z,65.97
2023-02-11T17:27:30.612Z,67.80
2023-02-11T17:29:58.706Z,61.90
2023-02-11T17:32:26.794Z,58.07
2023-02-11T17:34:54.977Z,64.63
2023-02-11T17:37:23.455Z,65.53
2023-02-11T17:39:53.245Z,58.30
2023-02-11T17:42:22.041Z,63.17
2023-02-11T17:44:50.290Z,60.37
2023-02-11T17:47:18.306Z,68.60
2023-02-11T17:49:46.915Z,74.33
2023-02-11T17:52:14.896Z,71.97
2023-02-11T17:54:43.296Z,70.83
2023-02-11T17:57:14.427Z,64.03
2023-02-11T17:59:43.329Z,67.20
2023-02-11T18:02:13.474Z,71.57
2023-02-11T18:04:43.600Z,75.60
2023-02-11T18:07:11.811Z,69.70
2023-02-11T18:09:40.071Z,60.93
2023-02-11T18:12:09.714Z,69.83
2023-02-11T18:14:41.680Z,74.37
2023-02-11T18:17:10.357Z,70.57
2023-02-11T18:19:38.576Z,65.67
2023-02-11T18:22:08.089Z,78.80
2023-02-11T18:24:36.607Z,68.37
2023-02-11T18:27:04.807Z,74.70
2023-02-11T18:29:32.898Z,66.40
2023-02-11T18:32:02.762Z,72.10
2023-02-11T18:34:31.599Z,70.43
2023-02-11T18:37:00.375Z,79.73
2023-02-11T18:39:28.377Z,69.23
2023-02-11T18:41:58.708Z,71.90
2023-02-11T18:44:28.677Z,70.50
2023-02-11T18:46:58.486Z,79.70
2023-02-11T18:49:28.200Z,75.23
2023-02-11T18:51:58.994Z,76.17
2023-02-11T18:54:27.144Z,81.50
2023-02-11T18:56:55.140Z,74.97
2023-02-11T18:59:23.805Z,73.90
2023-02-11T19:01:51.826Z,82.17
2023-02-11T19:04:20.385Z,79.13
2023-02-11T19:06:50.525Z,86.67
2023-02-11T19:09:21.379Z,76.90
2023-02-11T19:11:50.318Z,81.27
2023-02-11T19:14:23.147Z,77.43
2023-02-11T19:16:53.629Z,80.50
2023-02-11T19:19:23.110Z,85.57
2023-02-11T19:21:56.896Z,83.40
2023-02-11T19:24:26.059Z,82.63
2023-02-11T19:26:57.914Z,95.30
2023-02-11T19:29:27.118Z,114.50
2023-02-11T19:31:57.996Z,102.27
2023-02-11T19:34:26.192Z,104.50
2023-02-11T19:36:56.712Z,110.80
2023-02-11T19:39:25.838Z,110.03
2023-02-11T19:41:54.443Z,96.90
2023-02-11T19:44:22.873Z,91.57
2023-02-11T19:46:53.178Z,89.13
2023-02-11T19:49:25.944Z,96.03
2023-02-11T19:51:58.076Z,88.07
2023-02-11T19:54:29.116Z,108.33
2023-02-11T19:56:58.656Z,94.87
2023-02-11T19:59:30.048Z,93.63
2023-02-11T20:01:58.950Z,113.83
2023-02-11T20:04:27.438Z,113.07
2023-02-11T20:06:57.248Z,95.10
2023-02-11T20:09:26.494Z,110.30
2023-02-11T20:11:54.946Z,97.90
2023-02-11T20:14:25.085Z,105.07
2023-02-11T20:16:55.320Z,109.73
2023-02-11T20:19:25.929Z,90.80
2023-02-11T20:21:56.271Z,85.77
2023-02-11T20:24:25.381Z,105.40
2023-02-11T20:26:56.287Z,93.20
2023-02-11T20:29:25.803Z,88.10
2023-02-11T20:31:54.680Z,87.20
2023-02-11T20:34:22.937Z,90.93
2023-02-11T20:36:52.650Z,83.03
2023-02-11T20:39:24.479Z,102.43
2023-02-11T20:41:54.194Z,92.20
2023-02-11T20:44:23.738Z,82.90
2023-02-11T20:46:54.662Z,89.63
2023-02-11T20:49:24.929Z,78.17
2023-02-11T20:51:53.544Z,86.33
2023-02-11T20:54:25.357Z,92.70
2023-02-11T20:56:55.241Z,89.50
2023-02-11T20:59:27.215Z,83.33
2023-02-11T21:01:57.178Z,97.73
2023-02-11T21:04:27.751Z,81.50
2023-02-11T21:07:00.727Z,91.73
2023-02-11T21:09:33.083Z,88.60
2023-02-11T21:12:05.785Z,97.80
2023-02-11T21:14:33.933Z,92.77
2023-02-11T21:17:02.866Z,94.43
2023-02-11T21:19:30.814Z,105.07
2023-02-11T21:22:01.667Z,81.53
2023-02-11T21:24:32.729Z,90.67
2023-02-11T21:27:00.759Z,82.93
2023-02-11T21:29:31.121Z,85.70
2023-02-11T21:32:01.517Z,103.67
2023-02-11T21:34:30.129Z,85.30
2023-02-11T21:36:58.601Z,80.33
2023-02-11T21:39:26.784Z,87.50
2023-02-11T21:41:56.711Z,85.00
2023-02-11T21:44:27.731Z,88.53
2023-02-11T21:46:56.530Z,85.67
2023-02-11T21:49:25.402Z,82.30
2023-02-11T21:51:53.834Z,76.10
2023-02-11T21:54:24.742Z,75.93
2023-02-11T21:56:52.928Z,86.00
2023-02-11T21:59:22.438Z,87.37
2023-02-11T22:02:12.809Z,77.60
2023-02-11T22:04:42.915Z,74.77
2023-02-11T22:07:12.564Z,81.20
2023-02-11T22:09:43.532Z,72.77
2023-02-11T22:12:11.934Z,80.80
2023-02-11T22:14:42.100Z,66.40
2023-02-11T22:17:10.528Z,82.03
2023-02-11T22:19:39.862Z,78.50
2023-02-11T22:22:09.239Z,91.53
2023-02-11T22:24:37.530Z,73.60
2023-02-11T22:27:05.775Z,82.83
2023-02-11T22:29:33.880Z,70.50
2023-02-11T22:32:03.320Z,81.97
2023-02-11T22:34:31.871Z,80.00
2023-02-11T22:37:01.128Z,74.97
2023-02-11T22:39:31.093Z,75.03
2023-02-11T22:42:00.046Z,77.30
2023-02-11T22:44:28.767Z,71.23
2023-02-11T22:46:56.915Z,62.43
2023-02-11T22:49:27.268Z,74.33
2023-02-11T22:51:56.069Z,71.97
2023-02-11T22:54:24.046Z,66.23
2023-02-11T22:56:53.600Z,72.43
2023-02-11T22:59:23.566Z,67.73
2023-02-11T23:01:53.239Z,79.70
2023-02-11T23:04:21.773Z,64.07
2023-02-11T23:06:53.197Z,63.83
2023-02-11T23:09:21.727Z,68.43
2023-02-11T23:11:54.691Z,61.70
2023-02-11T23:14:22.864Z,68.00
2023-02-11T23:16:52.053Z,65.80
2023-02-11T23:19:21.702Z,62.20
2023-02-11T23:21:53.930Z,66.70
2023-02-11T23:24:23.149Z,64.10
2023-02-11T23:26:51.502Z,51.40
2023-02-11T23:29:19.726Z,60.73
2023-02-11T23:31:47.833Z,60.20
2023-02-11T23:34:22.819Z,63.47
2023-02-11T23:36:51.210Z,61.13
2023-02-11T23:39:21.612Z,60.33
2023-02-11T23:41:59.827Z,64.57
2023-02-11T23:44:37.292Z,69.50
2023-02-11T23:47:06.560Z,66.53
2023-02-11T23:49:38.309Z,63.83
2023-02-11T23:52:06.749Z,68.50
2023-02-11T23:54:36.545Z,59.47
2023-02-11T23:57:05.071Z,65.37
2023-02-11T23:59:33.121Z,63.77
